sensor_id;sensor_type;location;lat;lon;timestamp;temperature;humidity
15656;DHT22;7928;43.614;1.456;2023-09-19T00:02:22;19.50;99.90
15656;DHT22;7928;43.614;1.456;2023-09-19T00:04:49;19.50;99.90
15656;DHT22;7928;43.614;1.456;2023-09-19T00:07:17;19.40;99.90
15656;DHT22;7928;43.614;1.456;2023-09-19T00:09:44;19.40;99.90
15656;DHT22;7928;43.614;1.456;2023-09-19T00:12:12;19.40;99.90
15656;DHT22;7928;43.614;1.456;2023-09-19T00:14:39;19.40;99.90
15656;DHT22;7928;43.614;1.456;2023-09-19T00:17:08;19.40;99.90
15656;DHT22;7928;43.614;1.456;2023-09-19T00:19:35;19.40;99.90
15656;DHT22;7928;43.614;1.456;2023-09-19T00:22:03;19.40;99.90
15656;DHT22;7928;43.614;1.456;2023-09-19T00:24:30;19.40;99.90
15656;DHT22;7928;43.614;1.456;2023-09-19T00:26:57;19.40;99.90
15656;DHT22;7928;43.614;1.456;2023-09-19T00:29:25;19.40;99.90
15656;DHT22;7928;43.614;1.456;2023-09-19T00:31:55;19.40;99.90
15656;DHT22;7928;43.614;1.456;2023-09-19T00:34:24;19.30;99.90
15656;DHT22;7928;43.614;1.456;2023-09-19T00:36:51;19.30;99.90
15656;DHT22;7928;43.614;1.456;2023-09-19T00:39:20;19.30;99.90
15656;DHT22;7928;43.614;1.456;2023-09-19T00:41:47;19.20;99.90
15656;DHT22;7928;43.614;1.456;2023-09-19T00:44:15;19.30;99.90
15656;DHT22;7928;43.614;1.456;2023-09-19T00:46:43;19.20;99.90
15656;DHT22;7928;43.614;1.456;2023-09-19T00:49:13;19.20;99.90
15656;DHT22;7928;43.614;1.456;2023-09-19T00:51:42;19.20;99.90
15656;DHT22;7928;43.614;1.456;2023-09-19T00:54:13;19.20;99.90
15656;DHT22;7928;43.614;1.456;2023-09-19T00:56:44;19.20;99.90
15656;DHT22;7928;43.614;1.456;2023-09-19T00:59:12;19.20;99.90
15656;DHT22;7928;43.614;1.456;2023-09-19T01:01:39;19.20;99.90
15656;DHT22;7928;43.614;1.456;2023-09-19T01:04:06;19.20;99.90
15656;DHT22;7928;43.614;1.456;2023-09-19T01:06:33;19.20;99.90
15656;DHT22;7928;43.614;1.456;2023-09-19T01:09:03;19.20;99.90
15656;DHT22;7928;43.614;1.456;2023-09-19T01:11:35;19.20;99.90
15656;DHT22;7928;43.614;1.456;2023-09-19T01:14:14;19.20;99.90
15656;DHT22;7928;43.614;1.456;2023-09-19T01:16:50;19.30;99.90
15656;DHT22;7928;43.614;1.456;2023-09-19T01:20:08;19.30;99.90
15656;DHT22;7928;43.614;1.456;2023-09-19T01:22:48;19.40;99.90
15656;DHT22;7928;43.614;1.456;2023-09-19T01:25:41;19.30;99.90
15656;DHT22;7928;43.614;1.456;2023-09-19T01:28:27;19.30;99.90
15656;DHT22;7928;43.614;1.456;2023-09-19T01:30:59;19.30;99.90
15656;DHT22;7928;43.614;1.456;2023-09-19T01:33:53;19.30;99.90
15656;DHT22;7928;43.614;1.456;2023-09-19T01:36:18;19.20;99.90
15656;DHT22;7928;43.614;1.456;2023-09-19T01:38:45;19.20;99.90
15656;DHT22;7928;43.614;1.456;2023-09-19T01:41:17;19.20;99.90
15656;DHT22;7928;43.614;1.456;2023-09-19T01:43:49;19.20;99.90
15656;DHT22;7928;43.614;1.456;2023-09-19T01:46:21;19.10;99.90
15656;DHT22;7928;43.614;1.456;2023-09-19T01:48:54;19.10;99.90
15656;DHT22;7928;43.614;1.456;2023-09-19T01:51:34;19.10;99.90
15656;DHT22;7928;43.614;1.456;2023-09-19T01:54:08;19.10;99.90
15656;DHT22;7928;43.614;1.456;2023-09-19T01:56:42;19.10;99.90
15656;DHT22;7928;43.614;1.456;2023-09-19T01:59:13;19.00;99.90
15656;DHT22;7928;43.614;1.456;2023-09-19T02:01:45;18.20;99.90
15656;DHT22;7928;43.614;1.456;2023-09-19T02:04:12;19.00;99.90
15656;DHT22;7928;43.614;1.456;2023-09-19T02:06:41;18.90;99.90
15656;DHT22;7928;43.614;1.456;2023-09-19T02:09:08;18.90;99.90
15656;DHT22;7928;43.614;1.456;2023-09-19T02:11:35;18.90;99.90
15656;DHT22;7928;43.614;1.456;2023-09-19T02:14:02;18.90;99.90
15656;DHT22;7928;43.614;1.456;2023-09-19T02:16:34;18.80;99.90
15656;DHT22;7928;43.614;1.456;2023-09-19T02:19:01;18.90;99.90
15656;DHT22;7928;43.614;1.456;2023-09-19T02:21:30;18.90;99.90
15656;DHT22;7928;43.614;1.456;2023-09-19T02:23:59;18.80;99.90
15656;DHT22;7928;43.614;1.456;2023-09-19T02:26:27;18.80;99.90
15656;DHT22;7928;43.614;1.456;2023-09-19T02:28:53;18.90;99.90
15656;DHT22;7928;43.614;1.456;2023-09-19T02:31:21;18.80;99.90
15656;DHT22;7928;43.614;1.456;2023-09-19T02:33:48;18.80;99.90
15656;DHT22;7928;43.614;1.456;2023-09-19T02:36:15;18.80;99.90
15656;DHT22;7928;43.614;1.456;2023-09-19T02:38:43;18.80;99.90
15656;DHT22;7928;43.614;1.456;2023-09-19T02:41:11;18.70;99.90
15656;DHT22;7928;43.614;1.456;2023-09-19T02:43:39;18.70;99.90
15656;DHT22;7928;43.614;1.456;2023-09-19T02:46:06;18.70;99.90
15656;DHT22;7928;43.614;1.456;2023-09-19T02:48:33;18.70;99.90
15656;DHT22;7928;43.614;1.456;2023-09-19T02:51:01;18.70;99.90
15656;DHT22;7928;43.614;1.456;2023-09-19T02:53:29;18.70;99.90
15656;DHT22;7928;43.614;1.456;2023-09-19T02:55:58;18.70;99.90
15656;DHT22;7928;43.614;1.456;2023-09-19T02:58:26;18.60;99.90
15656;DHT22;7928;43.614;1.456;2023-09-19T03:00:56;18.60;99.90
15656;DHT22;7928;43.614;1.456;2023-09-19T03:03:23;18.60;99.90
15656;DHT22;7928;43.614;1.456;2023-09-19T03:05:50;18.60;99.90
15656;DHT22;7928;43.614;1.456;2023-09-19T03:08:19;18.60;99.90
15656;DHT22;7928;43.614;1.456;2023-09-19T03:10:46;18.60;99.90
15656;DHT22;7928;43.614;1.456;2023-09-19T03:13:14;18.60;99.90
15656;DHT22;7928;43.614;1.456;2023-09-19T03:15:43;18.50;99.90
15656;DHT22;7928;43.614;1.456;2023-09-19T03:18:12;18.50;99.90
15656;DHT22;7928;43.614;1.456;2023-09-19T03:20:39;18.50;99.90
15656;DHT22;7928;43.614;1.456;2023-09-19T03:23:06;18.50;99.90
15656;DHT22;7928;43.614;1.456;2023-09-19T03:25:34;18.50;99.90
15656;DHT22;7928;43.614;1.456;2023-09-19T03:28:02;18.40;99.90
15656;DHT22;7928;43.614;1.456;2023-09-19T03:30:31;18.40;99.90
15656;DHT22;7928;43.614;1.456;2023-09-19T03:33:01;18.40;99.90
15656;DHT22;7928;43.614;1.456;2023-09-19T03:35:28;18.40;99.90
15656;DHT22;7928;43.614;1.456;2023-09-19T03:37:55;18.40;99.90
15656;DHT22;7928;43.614;1.456;2023-09-19T03:40:23;18.40;99.90
15656;DHT22;7928;43.614;1.456;2023-09-19T03:42:51;18.40;99.90
15656;DHT22;7928;43.614;1.456;2023-09-19T03:45:18;18.30;99.90
15656;DHT22;7928;43.614;1.456;2023-09-19T03:47:45;18.30;99.90
15656;DHT22;7928;43.614;1.456;2023-09-19T03:50:14;18.30;99.90
15656;DHT22;7928;43.614;1.456;2023-09-19T03:52:43;18.30;99.90
15656;DHT22;7928;43.614;1.456;2023-09-19T03:55:10;18.30;99.90
15656;DHT22;7928;43.614;1.456;2023-09-19T03:57:37;18.20;99.90
15656;DHT22;7928;43.614;1.456;2023-09-19T04:00:05;18.20;99.90
15656;DHT22;7928;43.614;1.456;2023-09-19T04:02:37;18.20;99.90
15656;DHT22;7928;43.614;1.456;2023-09-19T04:05:04;18.20;99.90
15656;DHT22;7928;43.614;1.456;2023-09-19T04:07:33;18.20;99.90
15656;DHT22;7928;43.614;1.456;2023-09-19T04:10:00;18.10;99.90
15656;DHT22;7928;43.614;1.456;2023-09-19T04:12:27;18.10;99.90
15656;DHT22;7928;43.614;1.456;2023-09-19T04:14:54;18.10;99.90
15656;DHT22;7928;43.614;1.456;2023-09-19T04:17:21;18.10;99.90
15656;DHT22;7928;43.614;1.456;2023-09-19T04:19:48;18.10;99.90
15656;DHT22;7928;43.614;1.456;2023-09-19T04:22:15;18.10;99.90
15656;DHT22;7928;43.614;1.456;2023-09-19T04:24:44;18.10;99.90
15656;DHT22;7928;43.614;1.456;2023-09-19T04:27:11;18.10;99.90
15656;DHT22;7928;43.614;1.456;2023-09-19T04:29:39;18.10;99.90
15656;DHT22;7928;43.614;1.456;2023-09-19T04:32:07;18.10;99.90
15656;DHT22;7928;43.614;1.456;2023-09-19T04:34:35;18.00;99.90
15656;DHT22;7928;43.614;1.456;2023-09-19T04:37:02;18.00;99.90
15656;DHT22;7928;43.614;1.456;2023-09-19T04:39:30;18.00;99.90
15656;DHT22;7928;43.614;1.456;2023-09-19T04:41:58;18.00;99.90
15656;DHT22;7928;43.614;1.456;2023-09-19T04:44:25;18.00;99.90
15656;DHT22;7928;43.614;1.456;2023-09-19T04:46:52;18.00;99.90
15656;DHT22;7928;43.614;1.456;2023-09-19T04:49:19;17.90;99.90
15656;DHT22;7928;43.614;1.456;2023-09-19T04:51:46;17.90;99.90
15656;DHT22;7928;43.614;1.456;2023-09-19T04:54:13;17.90;99.90
15656;DHT22;7928;43.614;1.456;2023-09-19T04:56:41;17.90;99.90
15656;DHT22;7928;43.614;1.456;2023-09-19T04:59:09;17.90;99.90
15656;DHT22;7928;43.614;1.456;2023-09-19T05:01:37;17.80;99.90
15656;DHT22;7928;43.614;1.456;2023-09-19T05:04:04;17.90;99.90
15656;DHT22;7928;43.614;1.456;2023-09-19T05:06:31;18.00;99.90
15656;DHT22;7928;43.614;1.456;2023-09-19T05:08:58;18.00;99.90
15656;DHT22;7928;43.614;1.456;2023-09-19T05:11:26;18.10;99.90
15656;DHT22;7928;43.614;1.456;2023-09-19T05:13:55;18.00;99.90
15656;DHT22;7928;43.614;1.456;2023-09-19T05:16:24;18.00;99.90
15656;DHT22;7928;43.614;1.456;2023-09-19T05:18:51;18.00;99.90
15656;DHT22;7928;43.614;1.456;2023-09-19T05:21:18;18.00;99.90
15656;DHT22;7928;43.614;1.456;2023-09-19T05:23:45;18.10;99.90
15656;DHT22;7928;43.614;1.456;2023-09-19T05:26:13;18.10;99.90
15656;DHT22;7928;43.614;1.456;2023-09-19T05:28:42;18.00;99.90
15656;DHT22;7928;43.614;1.456;2023-09-19T05:31:09;18.00;99.90
15656;DHT22;7928;43.614;1.456;2023-09-19T05:33:37;18.00;99.90
15656;DHT22;7928;43.614;1.456;2023-09-19T05:36:05;18.00;99.90
15656;DHT22;7928;43.614;1.456;2023-09-19T05:38:33;18.00;99.90
15656;DHT22;7928;43.614;1.456;2023-09-19T05:41:00;18.00;99.90
15656;DHT22;7928;43.614;1.456;2023-09-19T05:43:27;18.00;99.90
15656;DHT22;7928;43.614;1.456;2023-09-19T05:45:54;17.90;99.90
15656;DHT22;7928;43.614;1.456;2023-09-19T05:48:22;17.90;99.90
15656;DHT22;7928;43.614;1.456;2023-09-19T05:50:50;18.00;99.90
15656;DHT22;7928;43.614;1.456;2023-09-19T05:53:17;18.00;99.90
15656;DHT22;7928;43.614;1.456;2023-09-19T05:55:44;18.00;99.90
15656;DHT22;7928;43.614;1.456;2023-09-19T05:58:11;18.00;99.90
15656;DHT22;7928;43.614;1.456;2023-09-19T06:00:39;18.00;99.90
15656;DHT22;7928;43.614;1.456;2023-09-19T06:03:08;18.00;99.90
15656;DHT22;7928;43.614;1.456;2023-09-19T06:05:35;17.90;99.90
15656;DHT22;7928;43.614;1.456;2023-09-19T06:08:06;17.90;99.90
15656;DHT22;7928;43.614;1.456;2023-09-19T06:10:35;18.00;99.90
15656;DHT22;7928;43.614;1.456;2023-09-19T06:13:02;18.00;99.90
15656;DHT22;7928;43.614;1.456;2023-09-19T06:15:31;18.00;99.90
15656;DHT22;7928;43.614;1.456;2023-09-19T06:18:01;18.00;99.90
15656;DHT22;7928;43.614;1.456;2023-09-19T06:20:30;18.10;99.90
15656;DHT22;7928;43.614;1.456;2023-09-19T06:22:58;18.10;99.90
15656;DHT22;7928;43.614;1.456;2023-09-19T06:25:29;18.10;99.90
15656;DHT22;7928;43.614;1.456;2023-09-19T06:27:56;18.10;99.90
15656;DHT22;7928;43.614;1.456;2023-09-19T06:30:24;18.10;99.90
15656;DHT22;7928;43.614;1.456;2023-09-19T06:32:56;18.00;99.90
15656;DHT22;7928;43.614;1.456;2023-09-19T06:35:23;18.00;99.90
15656;DHT22;7928;43.614;1.456;2023-09-19T06:37:51;18.10;99.90
15656;DHT22;7928;43.614;1.456;2023-09-19T06:40:19;18.00;99.90
15656;DHT22;7928;43.614;1.456;2023-09-19T06:42:50;18.10;99.90
15656;DHT22;7928;43.614;1.456;2023-09-19T06:45:18;18.20;99.90
15656;DHT22;7928;43.614;1.456;2023-09-19T06:47:47;18.30;99.90
15656;DHT22;7928;43.614;1.456;2023-09-19T06:50:16;18.30;99.90
15656;DHT22;7928;43.614;1.456;2023-09-19T06:52:45;18.30;99.90
15656;DHT22;7928;43.614;1.456;2023-09-19T06:55:13;18.30;99.90
15656;DHT22;7928;43.614;1.456;2023-09-19T06:57:42;18.20;99.90
15656;DHT22;7928;43.614;1.456;2023-09-19T07:00:11;18.20;99.90
15656;DHT22;7928;43.614;1.456;2023-09-19T07:02:44;18.30;99.90
15656;DHT22;7928;43.614;1.456;2023-09-19T07:05:11;18.40;99.90
15656;DHT22;7928;43.614;1.456;2023-09-19T07:07:38;18.40;99.90
15656;DHT22;7928;43.614;1.456;2023-09-19T07:10:06;18.40;99.90
15656;DHT22;7928;43.614;1.456;2023-09-19T07:12:34;18.60;99.90
15656;DHT22;7928;43.614;1.456;2023-09-19T07:15:01;18.60;99.90
15656;DHT22;7928;43.614;1.456;2023-09-19T07:17:29;18.60;99.90
15656;DHT22;7928;43.614;1.456;2023-09-19T07:19:56;18.60;99.90
15656;DHT22;7928;43.614;1.456;2023-09-19T07:22:23;18.80;99.90
15656;DHT22;7928;43.614;1.456;2023-09-19T07:24:50;19.00;99.90
15656;DHT22;7928;43.614;1.456;2023-09-19T07:27:17;18.90;99.90
15656;DHT22;7928;43.614;1.456;2023-09-19T07:29:44;19.00;99.90
15656;DHT22;7928;43.614;1.456;2023-09-19T07:32:11;18.90;99.90
15656;DHT22;7928;43.614;1.456;2023-09-19T07:34:41;19.00;99.90
15656;DHT22;7928;43.614;1.456;2023-09-19T07:37:10;19.20;99.90
15656;DHT22;7928;43.614;1.456;2023-09-19T07:39:38;19.30;99.90
15656;DHT22;7928;43.614;1.456;2023-09-19T07:42:06;19.40;99.90
15656;DHT22;7928;43.614;1.456;2023-09-19T07:44:35;19.50;99.90
15656;DHT22;7928;43.614;1.456;2023-09-19T07:47:02;19.60;99.90
15656;DHT22;7928;43.614;1.456;2023-09-19T07:49:30;19.60;99.90
15656;DHT22;7928;43.614;1.456;2023-09-19T07:51:58;19.60;99.90
15656;DHT22;7928;43.614;1.456;2023-09-19T07:54:26;19.70;99.90
15656;DHT22;7928;43.614;1.456;2023-09-19T07:56:56;19.80;99.90
15656;DHT22;7928;43.614;1.456;2023-09-19T07:59:23;20.00;99.90
15656;DHT22;7928;43.614;1.456;2023-09-19T08:01:50;20.00;99.90
15656;DHT22;7928;43.614;1.456;2023-09-19T08:04:17;20.10;99.90
15656;DHT22;7928;43.614;1.456;2023-09-19T08:06:45;20.20;99.90
15656;DHT22;7928;43.614;1.456;2023-09-19T08:09:13;20.40;99.90
15656;DHT22;7928;43.614;1.456;2023-09-19T08:11:46;20.40;99.90
15656;DHT22;7928;43.614;1.456;2023-09-19T08:14:13;20.60;99.90
15656;DHT22;7928;43.614;1.456;2023-09-19T08:16:40;20.70;99.90
15656;DHT22;7928;43.614;1.456;2023-09-19T08:19:09;20.60;99.90
15656;DHT22;7928;43.614;1.456;2023-09-19T08:21:37;20.60;99.90
15656;DHT22;7928;43.614;1.456;2023-09-19T08:24:04;20.70;99.90
15656;DHT22;7928;43.614;1.456;2023-09-19T08:26:33;21.00;99.90
15656;DHT22;7928;43.614;1.456;2023-09-19T08:29:01;21.40;99.90
15656;DHT22;7928;43.614;1.456;2023-09-19T08:31:31;21.70;99.90
15656;DHT22;7928;43.614;1.456;2023-09-19T08:33:59;21.80;99.90
15656;DHT22;7928;43.614;1.456;2023-09-19T08:36:26;21.80;99.90
15656;DHT22;7928;43.614;1.456;2023-09-19T08:38:53;21.90;99.90
15656;DHT22;7928;43.614;1.456;2023-09-19T08:41:20;22.20;99.90
15656;DHT22;7928;43.614;1.456;2023-09-19T08:43:48;22.30;99.90
15656;DHT22;7928;43.614;1.456;2023-09-19T08:46:16;22.40;99.90
15656;DHT22;7928;43.614;1.456;2023-09-19T08:48:46;22.30;99.90
15656;DHT22;7928;43.614;1.456;2023-09-19T08:51:24;22.30;99.90
15656;DHT22;7928;43.614;1.456;2023-09-19T08:54:01;22.30;99.90
15656;DHT22;7928;43.614;1.456;2023-09-19T08:56:30;22.10;99.90
15656;DHT22;7928;43.614;1.456;2023-09-19T08:59:02;22.10;99.90
15656;DHT22;7928;43.614;1.456;2023-09-19T09:01:31;22.40;99.90
15656;DHT22;7928;43.614;1.456;2023-09-19T09:03:59;22.70;99.90
15656;DHT22;7928;43.614;1.456;2023-09-19T09:06:26;23.30;99.90
15656;DHT22;7928;43.614;1.456;2023-09-19T09:08:54;23.50;99.90
15656;DHT22;7928;43.614;1.456;2023-09-19T09:11:21;23.40;99.90
15656;DHT22;7928;43.614;1.456;2023-09-19T09:13:50;23.10;99.90
15656;DHT22;7928;43.614;1.456;2023-09-19T09:16:18;22.90;99.90
15656;DHT22;7928;43.614;1.456;2023-09-19T09:18:45;22.90;99.90
15656;DHT22;7928;43.614;1.456;2023-09-19T09:21:18;22.60;99.90
15656;DHT22;7928;43.614;1.456;2023-09-19T09:23:47;22.60;99.90
15656;DHT22;7928;43.614;1.456;2023-09-19T09:26:14;22.50;99.90
15656;DHT22;7928;43.614;1.456;2023-09-19T09:28:45;22.30;99.90
15656;DHT22;7928;43.614;1.456;2023-09-19T09:31:24;22.40;99.90
15656;DHT22;7928;43.614;1.456;2023-09-19T09:33:54;22.40;99.90
15656;DHT22;7928;43.614;1.456;2023-09-19T09:36:34;22.70;99.90
15656;DHT22;7928;43.614;1.456;2023-09-19T09:39:02;22.90;99.90
15656;DHT22;7928;43.614;1.456;2023-09-19T09:41:41;23.20;99.90
15656;DHT22;7928;43.614;1.456;2023-09-19T09:44:13;23.20;99.90
15656;DHT22;7928;43.614;1.456;2023-09-19T09:46:44;23.30;99.90
15656;DHT22;7928;43.614;1.456;2023-09-19T09:49:41;23.40;99.90
15656;DHT22;7928;43.614;1.456;2023-09-19T09:52:20;23.60;99.90
15656;DHT22;7928;43.614;1.456;2023-09-19T09:54:59;23.60;99.90
15656;DHT22;7928;43.614;1.456;2023-09-19T09:57:30;23.80;99.90
15656;DHT22;7928;43.614;1.456;2023-09-19T09:59:59;24.10;99.90
15656;DHT22;7928;43.614;1.456;2023-09-19T10:02:43;24.10;99.90
15656;DHT22;7928;43.614;1.456;2023-09-19T10:05:13;24.60;99.90
15656;DHT22;7928;43.614;1.456;2023-09-19T10:07:46;25.00;99.90
15656;DHT22;7928;43.614;1.456;2023-09-19T10:10:15;25.60;99.90
15656;DHT22;7928;43.614;1.456;2023-09-19T10:12:59;26.30;99.90
15656;DHT22;7928;43.614;1.456;2023-09-19T10:15:32;27.00;99.90
15656;DHT22;7928;43.614;1.456;2023-09-19T10:18:01;27.60;99.90
15656;DHT22;7928;43.614;1.456;2023-09-19T10:20:34;27.40;99.90
15656;DHT22;7928;43.614;1.456;2023-09-19T10:23:06;26.70;99.90
15656;DHT22;7928;43.614;1.456;2023-09-19T10:25:37;26.50;99.90
15656;DHT22;7928;43.614;1.456;2023-09-19T10:28:06;26.20;99.90
15656;DHT22;7928;43.614;1.456;2023-09-19T10:30:37;26.20;99.90
15656;DHT22;7928;43.614;1.456;2023-09-19T10:33:09;27.90;99.90
15656;DHT22;7928;43.614;1.456;2023-09-19T10:35:38;29.50;99.90
15656;DHT22;7928;43.614;1.456;2023-09-19T10:38:07;29.80;99.90
15656;DHT22;7928;43.614;1.456;2023-09-19T10:40:35;28.60;99.90
15656;DHT22;7928;43.614;1.456;2023-09-19T10:43:06;27.90;99.90
15656;DHT22;7928;43.614;1.456;2023-09-19T10:45:35;27.20;99.90
15656;DHT22;7928;43.614;1.456;2023-09-19T10:48:04;26.70;99.90
15656;DHT22;7928;43.614;1.456;2023-09-19T10:50:46;27.30;99.90
15656;DHT22;7928;43.614;1.456;2023-09-19T10:53:16;28.50;99.90
15656;DHT22;7928;43.614;1.456;2023-09-19T10:55:50;28.70;99.90
15656;DHT22;7928;43.614;1.456;2023-09-19T10:58:26;28.80;99.90
15656;DHT22;7928;43.614;1.456;2023-09-19T11:00:55;29.90;99.90
15656;DHT22;7928;43.614;1.456;2023-09-19T11:03:27;30.80;99.90
15656;DHT22;7928;43.614;1.456;2023-09-19T11:06:09;32.10;99.90
15656;DHT22;7928;43.614;1.456;2023-09-19T11:08:53;32.10;99.90
15656;DHT22;7928;43.614;1.456;2023-09-19T11:11:48;32.80;99.90
15656;DHT22;7928;43.614;1.456;2023-09-19T11:14:41;32.80;99.90
15656;DHT22;7928;43.614;1.456;2023-09-19T11:17:33;31.50;99.90
15656;DHT22;7928;43.614;1.456;2023-09-19T11:20:22;32.40;99.60
15656;DHT22;7928;43.614;1.456;2023-09-19T11:23:21;32.40;97.90
15656;DHT22;7928;43.614;1.456;2023-09-19T11:25:54;33.10;98.90
15656;DHT22;7928;43.614;1.456;2023-09-19T11:28:34;31.50;99.90
15656;DHT22;7928;43.614;1.456;2023-09-19T11:34:43;30.40;99.90
15656;DHT22;7928;43.614;1.456;2023-09-19T11:40:46;33.50;98.80
15656;DHT22;7928;43.614;1.456;2023-09-19T11:43:33;33.30;96.80
15656;DHT22;7928;43.614;1.456;2023-09-19T11:46:06;31.30;97.80
15656;DHT22;7928;43.614;1.456;2023-09-19T11:48:33;30.90;98.90
15656;DHT22;7928;43.614;1.456;2023-09-19T11:51:16;31.20;98.30
15656;DHT22;7928;43.614;1.456;2023-09-19T11:53:48;30.60;96.90
15656;DHT22;7928;43.614;1.456;2023-09-19T11:56:18;31.00;97.80
15656;DHT22;7928;43.614;1.456;2023-09-19T11:58:46;31.20;97.20
15656;DHT22;7928;43.614;1.456;2023-09-19T12:01:16;31.70;99.20
15656;DHT22;7928;43.614;1.456;2023-09-19T12:03:53;32.40;97.70
15656;DHT22;7928;43.614;1.456;2023-09-19T12:06:23;32.70;97.70
15656;DHT22;7928;43.614;1.456;2023-09-19T12:08:50;32.80;97.60
15656;DHT22;7928;43.614;1.456;2023-09-19T12:11:22;33.60;96.20
15656;DHT22;7928;43.614;1.456;2023-09-19T12:13:50;34.60;94.20
15656;DHT22;7928;43.614;1.456;2023-09-19T12:16:19;35.40;95.20
15656;DHT22;7928;43.614;1.456;2023-09-19T12:18:48;36.30;92.30
15656;DHT22;7928;43.614;1.456;2023-09-19T12:21:26;35.30;93.00
15656;DHT22;7928;43.614;1.456;2023-09-19T12:24:06;36.50;93.80
15656;DHT22;7928;43.614;1.456;2023-09-19T12:26:42;36.20;90.70
15656;DHT22;7928;43.614;1.456;2023-09-19T12:29:16;36.00;90.30
15656;DHT22;7928;43.614;1.456;2023-09-19T12:31:48;35.60;89.00
15656;DHT22;7928;43.614;1.456;2023-09-19T12:34:20;35.60;91.70
15656;DHT22;7928;43.614;1.456;2023-09-19T12:36:48;35.40;88.30
15656;DHT22;7928;43.614;1.456;2023-09-19T12:39:25;35.50;88.30
15656;DHT22;7928;43.614;1.456;2023-09-19T12:41:54;36.10;89.70
15656;DHT22;7928;43.614;1.456;2023-09-19T12:44:21;36.80;90.70
15656;DHT22;7928;43.614;1.456;2023-09-19T12:46:50;37.40;89.30
15656;DHT22;7928;43.614;1.456;2023-09-19T12:49:20;37.80;84.80
15656;DHT22;7928;43.614;1.456;2023-09-19T12:51:48;37.50;84.60
15656;DHT22;7928;43.614;1.456;2023-09-19T12:54:16;37.40;80.20
15656;DHT22;7928;43.614;1.456;2023-09-19T12:56:44;37.50;84.10
15656;DHT22;7928;43.614;1.456;2023-09-19T12:59:15;37.30;81.00
15656;DHT22;7928;43.614;1.456;2023-09-19T13:01:42;36.90;79.70
15656;DHT22;7928;43.614;1.456;2023-09-19T13:04:16;37.20;78.80
15656;DHT22;7928;43.614;1.456;2023-09-19T13:06:46;36.90;82.40
15656;DHT22;7928;43.614;1.456;2023-09-19T13:09:15;37.30;83.60
15656;DHT22;7928;43.614;1.456;2023-09-19T13:11:43;36.70;78.50
15656;DHT22;7928;43.614;1.456;2023-09-19T13:14:17;36.90;80.70
15656;DHT22;7928;43.614;1.456;2023-09-19T13:16:55;36.80;81.00
15656;DHT22;7928;43.614;1.456;2023-09-19T13:19:39;36.70;79.50
15656;DHT22;7928;43.614;1.456;2023-09-19T13:22:37;36.40;78.70
15656;DHT22;7928;43.614;1.456;2023-09-19T13:25:08;37.10;79.80
15656;DHT22;7928;43.614;1.456;2023-09-19T13:27:40;37.40;78.30
15656;DHT22;7928;43.614;1.456;2023-09-19T13:30:10;37.70;79.80
15656;DHT22;7928;43.614;1.456;2023-09-19T13:32:37;37.90;76.60
15656;DHT22;7928;43.614;1.456;2023-09-19T13:35:07;37.90;75.80
15656;DHT22;7928;43.614;1.456;2023-09-19T13:37:34;38.00;75.00
15656;DHT22;7928;43.614;1.456;2023-09-19T13:40:04;37.30;74.00
15656;DHT22;7928;43.614;1.456;2023-09-19T13:42:31;37.40;74.10
15656;DHT22;7928;43.614;1.456;2023-09-19T13:44:58;37.50;72.00
15656;DHT22;7928;43.614;1.456;2023-09-19T13:47:26;37.30;75.70
15656;DHT22;7928;43.614;1.456;2023-09-19T13:49:54;38.40;75.70
15656;DHT22;7928;43.614;1.456;2023-09-19T13:52:21;38.90;71.80
15656;DHT22;7928;43.614;1.456;2023-09-19T13:54:49;39.10;68.50
15656;DHT22;7928;43.614;1.456;2023-09-19T13:57:16;38.90;68.40
15656;DHT22;7928;43.614;1.456;2023-09-19T13:59:43;39.00;71.00
15656;DHT22;7928;43.614;1.456;2023-09-19T14:02:10;39.20;67.40
15656;DHT22;7928;43.614;1.456;2023-09-19T14:04:41;38.30;65.70
15656;DHT22;7928;43.614;1.456;2023-09-19T14:07:08;38.40;70.90
15656;DHT22;7928;43.614;1.456;2023-09-19T14:09:36;39.00;69.60
15656;DHT22;7928;43.614;1.456;2023-09-19T14:12:04;39.10;70.70
15656;DHT22;7928;43.614;1.456;2023-09-19T14:14:31;39.20;70.90
15656;DHT22;7928;43.614;1.456;2023-09-19T14:16:58;39.50;70.10
15656;DHT22;7928;43.614;1.456;2023-09-19T14:19:26;39.50;66.80
15656;DHT22;7928;43.614;1.456;2023-09-19T14:21:54;39.40;68.10
15656;DHT22;7928;43.614;1.456;2023-09-19T14:24:22;38.60;65.60
15656;DHT22;7928;43.614;1.456;2023-09-19T14:26:49;38.20;67.20
15656;DHT22;7928;43.614;1.456;2023-09-19T14:29:17;38.10;68.10
15656;DHT22;7928;43.614;1.456;2023-09-19T14:31:45;37.90;67.30
15656;DHT22;7928;43.614;1.456;2023-09-19T14:34:12;37.40;65.60
15656;DHT22;7928;43.614;1.456;2023-09-19T14:36:40;37.80;66.50
15656;DHT22;7928;43.614;1.456;2023-09-19T14:39:08;38.00;66.30
15656;DHT22;7928;43.614;1.456;2023-09-19T14:41:35;38.30;67.00
15656;DHT22;7928;43.614;1.456;2023-09-19T14:44:02;38.10;67.80
15656;DHT22;7928;43.614;1.456;2023-09-19T14:46:30;37.70;64.80
15656;DHT22;7928;43.614;1.456;2023-09-19T14:48:57;37.20;68.70
15656;DHT22;7928;43.614;1.456;2023-09-19T14:51:25;38.00;67.00
15656;DHT22;7928;43.614;1.456;2023-09-19T14:53:53;38.60;66.50
15656;DHT22;7928;43.614;1.456;2023-09-19T14:56:21;39.00;67.30
15656;DHT22;7928;43.614;1.456;2023-09-19T14:58:49;39.30;68.00
15656;DHT22;7928;43.614;1.456;2023-09-19T15:01:16;39.30;69.70
15656;DHT22;7928;43.614;1.456;2023-09-19T15:03:43;39.10;65.90
15656;DHT22;7928;43.614;1.456;2023-09-19T15:06:12;38.50;65.20
15656;DHT22;7928;43.614;1.456;2023-09-19T15:08:41;38.40;68.90
15656;DHT22;7928;43.614;1.456;2023-09-19T15:11:11;38.40;69.60
15656;DHT22;7928;43.614;1.456;2023-09-19T15:13:40;38.50;66.70
15656;DHT22;7928;43.614;1.456;2023-09-19T15:16:08;38.70;68.10
15656;DHT22;7928;43.614;1.456;2023-09-19T15:18:36;38.70;65.70
15656;DHT22;7928;43.614;1.456;2023-09-19T15:21:04;38.60;67.10
15656;DHT22;7928;43.614;1.456;2023-09-19T15:23:32;38.80;69.40
15656;DHT22;7928;43.614;1.456;2023-09-19T15:26:00;38.20;67.30
15656;DHT22;7928;43.614;1.456;2023-09-19T15:28:28;37.90;67.80
15656;DHT22;7928;43.614;1.456;2023-09-19T15:31:01;37.40;66.70
15656;DHT22;7928;43.614;1.456;2023-09-19T15:33:29;37.30;68.60
15656;DHT22;7928;43.614;1.456;2023-09-19T15:36:01;37.20;66.00
15656;DHT22;7928;43.614;1.456;2023-09-19T15:38:29;37.00;66.50
15656;DHT22;7928;43.614;1.456;2023-09-19T15:40:57;36.80;68.00
15656;DHT22;7928;43.614;1.456;2023-09-19T15:43:24;36.60;70.00
15656;DHT22;7928;43.614;1.456;2023-09-19T15:45:51;36.40;69.80
15656;DHT22;7928;43.614;1.456;2023-09-19T15:48:20;35.90;69.50
15656;DHT22;7928;43.614;1.456;2023-09-19T15:50:47;35.90;69.30
15656;DHT22;7928;43.614;1.456;2023-09-19T15:53:14;35.90;67.90
15656;DHT22;7928;43.614;1.456;2023-09-19T15:55:42;35.60;70.00
15656;DHT22;7928;43.614;1.456;2023-09-19T15:58:10;35.10;65.80
15656;DHT22;7928;43.614;1.456;2023-09-19T16:00:40;34.80;69.00
15656;DHT22;7928;43.614;1.456;2023-09-19T16:03:07;35.10;66.70
15656;DHT22;7928;43.614;1.456;2023-09-19T16:05:39;34.90;69.30
15656;DHT22;7928;43.614;1.456;2023-09-19T16:08:06;34.80;69.10
15656;DHT22;7928;43.614;1.456;2023-09-19T16:10:36;34.80;68.50